Time;durP1;ratioP1;P1;durP2;ratioP2;P2;SDS_P1;SDS_P2;PMS_P1;PMS_P2;Temp;Humidity;BMP_temperature;BMP_pressure;BME280_temperature;BME280_humidity;BME280_pressure;Samples;Min_cycle;Max_cycle;Signal;HPM_P1;HPM_P2
2023/07/01 00:00:55;;;;;;;0.30;0.30;;;17.30;99.90;;;;;;4902425;29;20135;-85
2023/07/01 00:03:20;;;;;;;1.03;0.23;;;17.20;99.90;;;;;;4870484;29;20405;-85
2023/07/01 00:05:46;;;;;;;0.10;0.10;;;17.20;99.90;;;;;;4918874;29;20280;-84
2023/07/01 00:08:12;;;;;;;1.55;0.68;;;17.20;99.90;;;;;;4901895;29;20055;-87
2023/07/01 00:10:37;;;;;;;0.10;0.10;;;17.20;99.90;;;;;;4901863;29;20060;-88
2023/07/01 00:13:03;;;;;;;0.10;0.10;;;17.20;99.90;;;;;;4886286;29;20054;-85
2023/07/01 00:15:29;;;;;;;0.20;0.20;;;17.20;99.90;;;;;;4901304;29;20360;-85
2023/07/01 00:17:55;;;;;;;0.20;0.20;;;17.20;99.90;;;;;;4917478;29;20808;-85
2023/07/01 00:20:21;;;;;;;0.08;0.08;;;17.20;99.90;;;;;;4901005;29;20371;-85
2023/07/01 00:22:47;;;;;;;0.43;0.25;;;17.20;99.90;;;;;;4870944;29;20139;-84
2023/07/01 00:25:12;;;;;;;0.38;0.20;;;17.20;99.90;;;;;;4916782;29;20131;-88
2023/07/01 00:27:38;;;;;;;0.20;0.20;;;17.20;99.90;;;;;;4885272;29;20048;-85
2023/07/01 00:30:04;;;;;;;0.10;0.10;;;17.20;99.90;;;;;;4885937;29;20319;-85
2023/07/01 00:32:30;;;;;;;1.38;0.68;;;17.20;99.90;;;;;;4885634;29;20064;-86
2023/07/01 00:34:56;;;;;;;0.45;0.28;;;17.20;99.90;;;;;;4885546;29;20064;-85
2023/07/01 00:37:22;;;;;;;0.10;0.10;;;17.20;99.90;;;;;;4901005;29;20052;-86
2023/07/01 00:39:47;;;;;;;0.20;0.20;;;17.20;99.90;;;;;;4885889;29;20119;-85
2023/07/01 00:42:13;;;;;;;0.37;0.23;;;17.20;99.90;;;;;;4870450;29;20213;-85
2023/07/01 00:44:40;;;;;;;0.10;0.10;;;17.20;99.90;;;;;;4885555;29;20288;-85
2023/07/01 00:47:06;;;;;;;0.20;0.15;;;17.20;99.90;;;;;;4901379;29;20082;-84
2023/07/01 00:49:32;;;;;;;0.20;0.20;;;17.20;99.90;;;;;;4901205;29;20457;-84
2023/07/01 00:51:58;;;;;;;0.10;0.10;;;17.20;99.90;;;;;;4885464;29;20098;-85
2023/07/01 00:54:25;;;;;;;0.20;0.20;;;17.20;99.90;;;;;;4900933;29;20083;-84
2023/07/01 00:56:51;;;;;;;0.82;0.45;;;17.20;99.90;;;;;;4901361;29;20304;-84
2023/07/01 00:59:16;;;;;;;0.20;0.20;;;17.30;99.90;;;;;;4885954;29;20048;-85
2023/07/01 01:01:47;;;;;;;0.60;0.40;;;17.20;1.00;;;;;;4870307;29;20059;-84
2023/07/01 01:04:16;;;;;;;0.32;0.32;;;17.20;1.00;;;;;;4901531;29;20062;-84
2023/07/01 01:06:51;;;;;;;0.17;0.17;;;17.20;1.00;;;;;;4900879;29;20060;-84
2023/07/01 01:09:41;;;;;;;0.38;0.10;;;17.20;1.00;;;;;;4918095;29;20047;-84
2023/07/01 01:12:11;;;;;;;0.10;0.10;;;17.20;1.00;;;;;;4901334;29;20052;-84
2023/07/01 01:14:38;;;;;;;0.15;0.15;;;17.20;1.00;;;;;;4900951;29;20573;-84
2023/07/01 01:17:09;;;;;;;0.30;0.30;;;17.20;1.00;;;;;;4900923;29;20403;-84
2023/07/01 01:19:51;;;;;;;0.20;0.20;;;17.20;1.00;;;;;;4900412;29;20068;-84
2023/07/01 01:22:30;;;;;;;0.00;0.00;;;17.20;89.60;;;;;;4917532;29;20134;-84
2023/07/01 01:25:05;;;;;;;0.30;0.30;;;17.20;99.90;;;;;;4917745;29;20396;-84
2023/07/01 01:27:40;;;;;;;0.20;0.20;;;17.20;49.10;;;;;;4899931;29;20060;-85
2023/07/01 01:30:07;;;;;;;0.20;0.20;;;17.20;99.90;;;;;;4884109;29;20076;-84
2023/07/01 01:32:36;;;;;;;;;;;17.20;39.30;;;;;;4881809;29;20056;-84
2023/07/01 01:35:02;;;;;;;0.20;0.20;;;17.20;1.00;;;;;;4865880;29;20004;-85
2023/07/01 01:37:45;;;;;;;0.22;0.10;;;17.20;67.20;;;;;;4881163;29;20497;-84
2023/07/01 01:40:40;;;;;;;0.20;0.20;;;17.20;1.00;;;;;;4881744;29;20060;-84
2023/07/01 01:43:20;;;;;;;0.50;0.35;;;17.10;99.90;;;;;;4881383;29;20088;-84
2023/07/01 01:45:47;;;;;;;0.22;0.22;;;17.20;99.90;;;;;;4881377;29;20040;-84
2023/07/01 01:48:13;;;;;;;0.63;0.30;;;17.20;99.90;;;;;;4881459;29;20053;-84
2023/07/01 01:50:41;;;;;;;0.10;0.10;;;17.10;99.90;;;;;;4897682;29;20044;-84
2023/07/01 01:53:10;;;;;;;0.35;0.20;;;17.10;1.00;;;;;;4880531;29;20041;-84
2023/07/01 01:55:36;;;;;;;0.47;0.30;;;17.10;1.00;;;;;;4880634;29;20049;-84
2023/07/01 01:58:02;;;;;;;;;;;17.10;99.90;;;;;;4866239;29;20104;-84
2023/07/01 02:00:28;;;;;;;0.30;0.30;;;17.00;99.90;;;;;;4880775;29;19927;-85
2023/07/01 02:02:54;;;;;;;0.80;0.80;;;17.00;99.90;;;;;;4897717;29;20060;-83
2023/07/01 02:05:19;;;;;;;0.55;0.25;;;16.90;1.00;;;;;;4881331;29;20091;-84
2023/07/01 02:07:45;;;;;;;0.37;0.37;;;16.90;1.00;;;;;;4881104;29;20429;-83
2023/07/01 02:10:12;;;;;;;0.20;0.20;;;16.80;99.90;;;;;;4865543;29;20289;-84
2023/07/01 02:12:37;;;;;;;;;;;16.80;99.90;;;;;;4881326;29;20056;-84
2023/07/01 02:15:03;;;;;;;0.50;0.40;;;16.70;81.40;;;;;;4865547;29;20265;-84
2023/07/01 02:17:29;;;;;;;0.30;0.30;;;16.70;1.00;;;;;;4865565;29;20048;-87
2023/07/01 02:19:54;;;;;;;0.57;0.33;;;16.60;99.90;;;;;;4865483;29;20486;-84
2023/07/01 02:22:20;;;;;;;1.60;0.40;;;16.60;99.90;;;;;;4865458;29;20072;-84
2023/07/01 02:24:46;;;;;;;0.32;0.30;;;16.70;1.00;;;;;;4880504;29;20143;-84
2023/07/01 02:27:12;;;;;;;0.30;0.22;;;16.60;99.90;;;;;;4880790;29;20108;-84
2023/07/01 02:29:38;;;;;;;0.32;0.30;;;16.60;99.90;;;;;;4892162;29;20052;-84
2023/07/01 02:32:04;;;;;;;0.30;0.30;;;16.60;1.00;;;;;;4868287;29;20088;-84
2023/07/01 02:34:30;;;;;;;0.65;0.30;;;16.60;99.90;;;;;;4899343;29;20052;-86
2023/07/01 02:36:56;;;;;;;;;;;16.60;99.90;;;;;;4899661;29;20055;-84
2023/07/01 02:39:22;;;;;;;2.03;0.73;;;16.60;99.90;;;;;;4899555;29;20367;-85
2023/07/01 02:41:48;;;;;;;0.80;0.40;;;16.60;99.90;;;;;;4883286;29;20131;-84
2023/07/01 02:44:13;;;;;;;0.30;0.30;;;16.60;1.00;;;;;;4868460;29;20044;-85
2023/07/01 02:46:39;;;;;;;0.70;0.63;;;16.60;99.90;;;;;;4883593;29;20052;-85
2023/07/01 02:49:05;;;;;;;0.45;0.38;;;16.60;99.90;;;;;;4883538;29;20512;-84
2023/07/01 02:51:31;;;;;;;0.25;0.15;;;16.60;99.90;;;;;;4867941;29;20048;-84
2023/07/01 02:53:56;;;;;;;0.20;0.20;;;16.60;99.90;;;;;;4883534;29;20059;-84
2023/07/01 02:56:22;;;;;;;0.93;0.53;;;16.70;99.90;;;;;;4899426;29;20051;-85
2023/07/01 02:58:48;;;;;;;0.20;0.20;;;16.70;1.00;;;;;;4883873;29;20056;-85
2023/07/01 03:01:14;;;;;;;0.30;0.30;;;16.70;99.90;;;;;;4899353;29;20408;-84
2023/07/01 03:03:40;;;;;;;1.90;0.63;;;16.70;99.90;;;;;;4899377;29;20051;-85
2023/07/01 03:06:06;;;;;;;0.40;0.40;;;16.70;99.90;;;;;;4899649;29;20071;-84
2023/07/01 03:08:32;;;;;;;0.75;0.43;;;16.70;99.90;;;;;;4899741;29;20052;-84
2023/07/01 03:10:57;;;;;;;0.27;0.27;;;16.70;99.90;;;;;;4883782;29;20104;-84
2023/07/01 03:13:23;;;;;;;0.50;0.50;;;16.70;99.90;;;;;;4883962;29;20052;-84
2023/07/01 03:15:50;;;;;;;0.35;0.35;;;16.60;6.20;;;;;;4899085;29;20052;-84
2023/07/01 03:18:15;;;;;;;;;;;16.60;1.00;;;;;;4899913;29;20056;-84
2023/07/01 03:20:41;;;;;;;0.55;0.52;;;16.50;1.00;;;;;;4883299;29;19979;-85
2023/07/01 03:23:07;;;;;;;1.20;1.10;;;16.40;99.90;;;;;;4898679;29;20048;-86
2023/07/01 03:25:32;;;;;;;0.40;0.40;;;16.40;1.00;;;;;;4883608;29;20052;-85
2023/07/01 03:27:58;;;;;;;0.30;0.30;;;16.30;99.90;;;;;;4898300;29;20672;-85
2023/07/01 03:30:29;;;;;;;0.20;0.20;;;16.20;1.00;;;;;;4880061;29;20064;-85
2023/07/01 03:32:56;;;;;;;0.30;0.30;;;16.10;1.00;;;;;;4880074;29;20045;-85
2023/07/01 03:35:21;;;;;;;;;;;16.10;99.90;;;;;;4880573;29;20128;-85
2023/07/01 03:37:47;;;;;;;0.20;0.20;;;16.10;99.90;;;;;;4895519;29;19990;-85
2023/07/01 03:40:13;;;;;;;0.30;0.30;;;16.00;99.90;;;;;;4880320;29;20052;-85
2023/07/01 03:42:42;;;;;;;0.57;0.50;;;16.00;99.90;;;;;;4880023;29;20782;-87
2023/07/01 03:45:10;;;;;;;0.30;0.30;;;15.90;99.90;;;;;;4880288;29;20076;-85
2023/07/01 03:47:37;;;;;;;0.40;0.40;;;15.80;99.90;;;;;;4880218;29;20064;-85
2023/07/01 03:50:07;;;;;;;0.20;0.20;;;15.80;99.90;;;;;;4879938;29;20045;-85
2023/07/01 03:52:34;;;;;;;0.55;0.40;;;15.80;99.90;;;;;;4895328;29;20072;-85
2023/07/01 03:55:02;;;;;;;0.20;0.20;;;15.70;99.90;;;;;;4879348;29;20600;-86
2023/07/01 03:57:28;;;;;;;0.30;0.30;;;15.60;99.90;;;;;;4895840;29;20052;-84
2023/07/01 03:59:54;;;;;;;0.63;0.47;;;15.60;1.00;;;;;;4879910;29;20048;-85
2023/07/01 04:02:19;;;;;;;0.30;0.30;;;15.60;1.00;;;;;;4867455;29;20052;-84
2023/07/01 04:04:45;;;;;;;0.50;0.50;;;15.60;1.00;;;;;;4882938;29;20080;-86
2023/07/01 04:07:11;;;;;;;0.60;0.30;;;15.60;1.00;;;;;;4898991;29;20852;-86
2023/07/01 04:09:37;;;;;;;0.28;0.28;;;15.50;1.00;;;;;;4898892;29;20053;-86
2023/07/01 04:12:03;;;;;;;0.57;0.57;;;15.50;1.00;;;;;;4882894;29;20123;-85
2023/07/01 04:14:28;;;;;;;0.35;0.30;;;15.50;1.00;;;;;;4883005;29;20049;-85
2023/07/01 04:16:54;;;;;;;0.30;0.30;;;15.50;1.00;;;;;;4867198;29;20055;-87
2023/07/01 04:19:20;;;;;;;0.33;0.20;;;15.50;1.00;;;;;;4882978;29;20076;-86
2023/07/01 04:21:45;;;;;;;0.30;0.22;;;15.50;1.00;;;;;;4897875;29;20052;-86
2023/07/01 04:24:11;;;;;;;0.43;0.40;;;15.50;1.00;;;;;;4883135;29;20057;-86
2023/07/01 04:26:37;;;;;;;0.47;0.47;;;15.50;1.00;;;;;;4883051;29;20053;-85
2023/07/01 04:29:03;;;;;;;0.37;0.37;;;15.50;1.00;;;;;;4880079;29;20064;-85
2023/07/01 04:31:29;;;;;;;0.25;0.20;;;15.50;1.00;;;;;;4867777;29;20506;-85
2023/07/01 04:33:55;;;;;;;0.30;0.17;;;15.60;7.40;;;;;;4882595;29;20045;-85
2023/07/01 04:36:21;;;;;;;0.35;0.32;;;15.60;1.00;;;;;;4882907;29;20593;-85
2023/07/01 04:38:47;;;;;;;0.77;0.77;;;15.60;1.00;;;;;;4867366;29;20135;-87
2023/07/01 04:41:13;;;;;;;1.80;0.93;;;15.60;1.00;;;;;;4867634;29;20173;-85
2023/07/01 04:43:40;;;;;;;0.40;0.40;;;15.60;1.00;;;;;;4882787;29;20053;-86
2023/07/01 04:46:06;;;;;;;0.65;0.30;;;15.60;1.00;;;;;;4851297;29;20621;-86
2023/07/01 04:48:31;;;;;;;0.15;0.15;;;15.60;1.00;;;;;;4867395;29;20112;-85
2023/07/01 04:50:57;;;;;;;0.47;0.47;;;15.70;1.00;;;;;;4866968;29;20222;-85
2023/07/01 04:53:23;;;;;;;0.30;0.30;;;15.60;1.00;;;;;;4882403;29;20049;-85
2023/07/01 04:55:49;;;;;;;0.37;0.20;;;15.70;1.00;;;;;;4851754;29;20075;-87
2023/07/01 04:58:14;;;;;;;0.25;0.25;;;15.70;1.00;;;;;;4882785;29;20053;-85
2023/07/01 05:00:40;;;;;;;0.60;0.40;;;15.70;1.00;;;;;;4867412;29;20059;-85
2023/07/01 05:03:06;;;;;;;0.57;0.38;;;15.70;1.00;;;;;;4851429;29;20087;-85
2023/07/01 05:05:32;;;;;;;0.30;0.30;;;15.80;1.00;;;;;;4866927;29;20044;-85
2023/07/01 05:07:58;;;;;;;0.40;0.40;;;15.80;1.00;;;;;;4881959;29;20054;-85
2023/07/01 05:10:23;;;;;;;0.60;0.60;;;15.80;1.00;;;;;;4851378;29;20052;-85
2023/07/01 05:12:52;;;;;;;0.52;0.52;;;15.80;1.00;;;;;;4866516;29;20049;-87
2023/07/01 05:15:18;;;;;;;0.28;0.28;;;15.80;1.00;;;;;;4866583;29;20094;-86
2023/07/01 05:17:44;;;;;;;0.43;0.40;;;15.80;1.00;;;;;;4866642;29;20045;-86
2023/07/01 05:20:11;;;;;;;0.17;0.17;;;15.80;1.00;;;;;;4881212;29;20136;-85
2023/07/01 05:22:37;;;;;;;0.43;0.43;;;15.80;1.00;;;;;;4882021;29;20056;-87
2023/07/01 05:25:04;;;;;;;0.28;0.22;;;15.90;1.00;;;;;;4881781;29;20064;-85
2023/07/01 05:27:30;;;;;;;;;;;15.90;1.00;;;;;;4882172;29;20052;-85
2023/07/01 05:29:57;;;;;;;0.50;0.50;;;15.90;1.60;;;;;;4893196;29;19930;-86
2023/07/01 05:32:23;;;;;;;0.57;0.50;;;15.90;1.00;;;;;;4885145;29;20060;-84
2023/07/01 05:34:48;;;;;;;0.73;0.73;;;15.90;1.00;;;;;;4900100;29;20055;-85
2023/07/01 05:37:14;;;;;;;0.70;0.70;;;15.90;1.00;;;;;;4884347;29;20040;-85
2023/07/01 05:39:40;;;;;;;0.93;0.60;;;16.00;1.00;;;;;;4884816;29;20044;-85
2023/07/01 05:42:06;;;;;;;0.90;0.50;;;16.00;1.00;;;;;;4868767;29;20352;-85
2023/07/01 05:44:31;;;;;;;0.20;0.20;;;16.00;1.00;;;;;;4885113;29;20428;-85
2023/07/01 05:46:57;;;;;;;0.30;0.30;;;16.00;1.00;;;;;;4884284;29;20052;-86
2023/07/01 05:49:23;;;;;;;0.55;0.55;;;16.00;1.00;;;;;;4884573;29;20563;-85
2023/07/01 05:51:48;;;;;;;0.77;0.43;;;16.10;1.00;;;;;;4884941;29;20044;-85
2023/07/01 05:54:14;;;;;;;0.80;0.80;;;16.10;1.00;;;;;;4900252;29;20132;-84
2023/07/01 05:56:40;;;;;;;0.70;0.40;;;16.10;1.00;;;;;;4899809;29;20044;-85
2023/07/01 05:59:06;;;;;;;0.40;0.40;;;16.10;1.00;;;;;;4899700;29;20296;-86
2023/07/01 06:01:31;;;;;;;0.83;0.70;;;16.10;1.00;;;;;;4884181;29;20052;-85
2023/07/01 06:03:57;;;;;;;0.30;0.30;;;16.20;1.00;;;;;;4884517;29;20131;-87
2023/07/01 06:06:23;;;;;;;0.50;0.40;;;16.20;1.00;;;;;;4884807;29;20408;-85
2023/07/01 06:08:49;;;;;;;0.40;0.40;;;16.20;1.00;;;;;;4899981;29;20055;-87
2023/07/01 06:11:15;;;;;;;0.20;0.20;;;16.20;1.00;;;;;;4899113;29;20300;-86
2023/07/01 06:13:49;;;;;;;0.40;0.40;;;16.30;1.00;;;;;;4899901;29;20094;-85
2023/07/01 06:16:15;;;;;;;0.43;0.43;;;16.30;1.00;;;;;;4899629;29;20044;-85
2023/07/01 06:18:41;;;;;;;0.25;0.25;;;16.20;1.00;;;;;;4899717;29;20051;-85
2023/07/01 06:21:08;;;;;;;0.38;0.38;;;16.20;22.90;;;;;;4883652;29;20508;-85
2023/07/01 06:23:35;;;;;;;1.15;0.60;;;16.20;1.00;;;;;;4915628;29;20052;-85
2023/07/01 06:26:01;;;;;;;1.08;0.65;;;16.20;13.10;;;;;;4898591;29;20086;-85
2023/07/01 06:28:26;;;;;;;0.30;0.30;;;16.20;15.90;;;;;;4899247;29;20079;-86
2023/07/01 06:30:52;;;;;;;0.50;0.47;;;16.20;40.30;;;;;;4886005;29;20059;-83
2023/07/01 06:33:18;;;;;;;0.63;0.50;;;16.20;54.80;;;;;;4898797;29;20743;-85
2023/07/01 06:35:45;;;;;;;0.43;0.30;;;16.20;29.60;;;;;;4898921;29;20052;-85
2023/07/01 06:38:10;;;;;;;0.77;0.40;;;16.20;69.30;;;;;;4899228;29;20511;-85
2023/07/01 06:40:36;;;;;;;0.98;0.50;;;16.20;55.00;;;;;;4899594;29;20052;-88
2023/07/01 06:43:04;;;;;;;0.23;0.23;;;16.20;30.10;;;;;;4898738;29;20139;-89
2023/07/01 06:45:31;;;;;;;0.43;0.43;;;16.30;74.40;;;;;;4899848;29;20367;-85
2023/07/01 06:48:01;;;;;;;0.35;0.30;;;16.20;52.70;;;;;;4914989;29;20131;-85
2023/07/01 06:50:27;;;;;;;0.93;0.60;;;16.20;66.00;;;;;;4915731;29;20056;-84
2023/07/01 06:52:53;;;;;;;0.45;0.45;;;16.20;69.40;;;;;;4899265;29;20068;-85
2023/07/01 06:55:18;;;;;;;0.57;0.57;;;16.10;82.90;;;;;;4899121;29;20051;-85
2023/07/01 06:57:47;;;;;;;0.50;0.50;;;16.10;86.70;;;;;;4868931;29;20165;-89
2023/07/01 07:00:13;;;;;;;0.35;0.30;;;16.10;79.30;;;;;;4884147;29;20052;-87
2023/07/01 07:02:39;;;;;;;0.40;0.40;;;16.10;66.70;;;;;;4900111;29;20044;-84
2023/07/01 07:05:06;;;;;;;1.40;0.50;;;16.20;85.10;;;;;;4883561;29;20087;-86
2023/07/01 07:07:32;;;;;;;0.15;0.15;;;16.10;71.70;;;;;;4899203;29;20397;-86
2023/07/01 07:09:58;;;;;;;0.15;0.15;;;16.20;92.30;;;;;;4884055;29;20476;-84
2023/07/01 07:12:25;;;;;;;0.25;0.25;;;16.10;99.90;;;;;;4915782;29;20096;-86
2023/07/01 07:14:51;;;;;;;0.52;0.30;;;16.20;97.30;;;;;;4899641;29;20100;-85
2023/07/01 07:17:17;;;;;;;0.50;0.30;;;16.20;93.50;;;;;;4883520;29;20052;-83
2023/07/01 07:19:43;;;;;;;;;;;16.10;98.10;;;;;;4916326;29;20048;-84
2023/07/01 07:22:09;;;;;;;1.60;1.00;;;16.20;99.90;;;;;;4899018;29;19923;-86
2023/07/01 07:24:35;;;;;;;0.40;0.40;;;16.20;99.90;;;;;;4898722;29;20056;-84
2023/07/01 07:27:02;;;;;;;0.55;0.30;;;16.20;99.90;;;;;;4916024;29;20832;-83
2023/07/01 07:29:28;;;;;;;0.30;0.30;;;16.30;98.50;;;;;;4915086;29;20548;-84
2023/07/01 07:31:55;;;;;;;0.45;0.40;;;16.30;95.20;;;;;;4899087;29;20067;-84
2023/07/01 07:34:21;;;;;;;0.25;0.25;;;16.30;98.20;;;;;;4883114;29;20170;-83
2023/07/01 07:36:47;;;;;;;0.32;0.30;;;16.30;98.80;;;;;;4902487;29;20536;-84
2023/07/01 07:39:14;;;;;;;0.32;0.32;;;16.30;99.90;;;;;;4919371;29;20087;-84
2023/07/01 07:41:44;;;;;;;0.50;0.50;;;16.30;98.30;;;;;;4902816;29;20055;-83
2023/07/01 07:44:09;;;;;;;0.52;0.40;;;16.30;99.10;;;;;;4902407;29;20044;-87
2023/07/01 07:46:36;;;;;;;0.57;0.50;;;16.30;99.90;;;;;;4902518;29;20367;-84
2023/07/01 07:49:02;;;;;;;0.32;0.30;;;16.40;99.90;;;;;;4902952;29;20056;-84
2023/07/01 07:51:28;;;;;;;0.40;0.40;;;16.30;99.90;;;;;;4919096;29;20186;-84
2023/07/01 07:53:54;;;;;;;0.40;0.40;;;16.40;99.60;;;;;;4919288;29;20433;-82
2023/07/01 07:56:20;;;;;;;0.50;0.40;;;16.40;99.90;;;;;;4919106;29;20048;-85
2023/07/01 07:58:45;;;;;;;0.65;0.40;;;16.40;99.90;;;;;;4920222;29;20044;-85
2023/07/01 08:01:12;;;;;;;0.95;0.85;;;16.40;99.90;;;;;;4919028;29;20080;-85
2023/07/01 08:03:38;;;;;;;0.22;0.22;;;16.40;99.90;;;;;;4919457;29;20044;-84
2023/07/01 08:06:05;;;;;;;0.38;0.38;;;16.40;99.90;;;;;;4903067;29;20496;-86
2023/07/01 08:08:31;;;;;;;0.38;0.32;;;16.50;99.90;;;;;;4902458;29;20132;-85
2023/07/01 08:10:58;;;;;;;0.70;0.60;;;16.50;99.50;;;;;;4919500;29;20099;-85
2023/07/01 08:13:24;;;;;;;0.32;0.28;;;16.50;99.90;;;;;;4902558;29;20126;-85
2023/07/01 08:15:50;;;;;;;0.52;0.40;;;16.50;99.90;;;;;;4919489;29;20132;-85
2023/07/01 08:18:16;;;;;;;1.75;1.30;;;16.60;99.90;;;;;;4902294;29;20040;-85
2023/07/01 08:20:43;;;;;;;0.30;0.30;;;16.60;99.90;;;;;;4919140;29;20056;-84
2023/07/01 08:23:09;;;;;;;0.40;0.40;;;16.70;99.90;;;;;;4907165;29;20063;-82
2023/07/01 08:25:36;;;;;;;0.80;0.80;;;16.70;99.90;;;;;;4918971;29;20135;-83
2023/07/01 08:28:01;;;;;;;0.80;0.30;;;16.70;99.90;;;;;;4902029;29;20131;-83
2023/07/01 08:30:27;;;;;;;0.22;0.22;;;16.80;99.90;;;;;;4904992;29;20147;-84
2023/07/01 08:32:53;;;;;;;0.40;0.30;;;16.80;99.90;;;;;;4934833;29;20044;-82
2023/07/01 08:35:18;;;;;;;1.03;0.50;;;16.80;99.90;;;;;;4895504;29;20827;-84
2023/07/01 08:37:44;;;;;;;0.40;0.40;;;16.90;99.90;;;;;;4904955;29;20807;-83
2023/07/01 08:40:10;;;;;;;0.28;0.28;;;16.80;99.90;;;;;;4925089;29;20048;-83
2023/07/01 08:42:43;;;;;;;0.30;0.30;;;16.80;99.90;;;;;;4893397;29;20051;-83
2023/07/01 08:45:10;;;;;;;0.60;0.60;;;16.80;99.90;;;;;;4909053;29;20060;-84
2023/07/01 08:47:37;;;;;;;0.77;0.50;;;16.80;99.90;;;;;;4910094;29;20059;-89
2023/07/01 08:50:08;;;;;;;0.30;0.30;;;16.90;99.90;;;;;;4925491;29;20377;-86
2023/07/01 08:52:42;;;;;;;0.57;0.40;;;16.80;99.90;;;;;;4931780;29;20570;-84
2023/07/01 08:55:12;;;;;;;0.30;0.30;;;16.90;99.90;;;;;;4908134;29;20056;-85
2023/07/01 08:57:41;;;;;;;0.32;0.32;;;16.80;99.90;;;;;;4928503;29;20686;-86
2023/07/01 09:00:09;;;;;;;0.50;0.40;;;16.90;99.90;;;;;;4924616;29;20091;-86
2023/07/01 09:02:36;;;;;;;0.20;0.20;;;16.80;99.90;;;;;;4889126;29;20050;-87
2023/07/01 09:05:02;;;;;;;0.10;0.10;;;16.80;99.90;;;;;;4903520;29;20083;-86
2023/07/01 09:07:29;;;;;;;0.45;0.40;;;16.80;99.90;;;;;;4887717;29;20135;-85
2023/07/01 09:09:56;;;;;;;0.50;0.50;;;16.80;99.90;;;;;;4886108;29;20052;-85
2023/07/01 09:12:29;;;;;;;0.22;0.22;;;16.80;99.90;;;;;;4917468;29;20131;-85
2023/07/01 09:15:07;;;;;;;0.60;0.40;;;16.90;99.90;;;;;;4900962;29;20083;-86
2023/07/01 09:17:36;;;;;;;0.40;0.40;;;16.90;99.90;;;;;;4900512;29;20056;-85
2023/07/01 09:20:07;;;;;;;0.40;0.40;;;16.90;99.90;;;;;;4900673;29;20048;-85
2023/07/01 09:22:35;;;;;;;0.30;0.28;;;16.90;99.90;;;;;;4917261;29;20096;-86
2023/07/01 09:25:01;;;;;;;1.13;0.75;;;17.00;99.90;;;;;;4900546;29;20107;-86
2023/07/01 09:27:48;;;;;;;0.30;0.25;;;17.00;99.90;;;;;;4917014;29;20504;-86
2023/07/01 09:30:20;;;;;;;;;;;17.00;99.90;;;;;;4900791;29;20060;-85
2023/07/01 09:32:47;;;;;;;0.55;0.52;;;17.10;99.90;;;;;;4899978;29;20379;-85
2023/07/01 09:35:13;;;;;;;0.80;0.65;;;17.10;99.90;;;;;;4916079;29;20052;-82
2023/07/01 09:37:39;;;;;;;1.20;0.45;;;17.10;99.90;;;;;;4901114;29;20056;-89
2023/07/01 09:40:26;;;;;;;0.40;0.30;;;17.10;99.90;;;;;;4917608;29;20048;-86
2023/07/01 09:42:52;;;;;;;0.73;0.73;;;17.20;99.90;;;;;;4884606;29;20084;-86
2023/07/01 09:45:18;;;;;;;;;;;17.20;99.90;;;;;;4903731;29;20056;-85
2023/07/01 09:47:44;;;;;;;0.45;0.45;;;17.20;99.90;;;;;;4902613;29;19981;-86
2023/07/01 09:50:24;;;;;;;0.52;0.40;;;17.20;99.90;;;;;;4899888;29;20130;-84
2023/07/01 09:52:52;;;;;;;0.32;0.30;;;17.20;99.90;;;;;;4900267;29;20064;-85
2023/07/01 09:55:18;;;;;;;0.30;0.30;;;17.20;99.90;;;;;;4900496;29;20408;-85
2023/07/01 09:57:44;;;;;;;0.70;0.68;;;17.30;99.90;;;;;;4902031;29;20049;-86
2023/07/01 10:00:15;;;;;;;0.32;0.30;;;17.20;99.90;;;;;;4889325;29;20056;-82
2023/07/01 10:02:45;;;;;;;0.25;0.25;;;17.30;99.90;;;;;;4918195;29;20139;-85
2023/07/01 10:05:14;;;;;;;0.40;0.40;;;17.30;99.90;;;;;;4884698;29;20048;-84
2023/07/01 10:07:40;;;;;;;0.30;0.30;;;17.20;99.90;;;;;;4883957;29;20058;-86
2023/07/01 10:10:12;;;;;;;0.35;0.30;;;17.30;99.90;;;;;;4884258;29;20048;-86
2023/07/01 10:12:40;;;;;;;0.65;0.30;;;17.30;99.90;;;;;;4899243;29;20584;-86
2023/07/01 10:15:08;;;;;;;0.55;0.40;;;17.30;99.90;;;;;;4899667;29;20139;-87
2023/07/01 10:17:48;;;;;;;0.45;0.38;;;17.30;99.90;;;;;;4884217;29;20446;-86
2023/07/01 10:20:27;;;;;;;0.43;0.43;;;17.30;99.90;;;;;;4869132;29;20051;-87
2023/07/01 10:23:00;;;;;;;0.43;0.20;;;17.40;99.90;;;;;;4884423;29;20056;-87
2023/07/01 10:25:37;;;;;;;0.40;0.40;;;17.50;99.90;;;;;;4900886;29;20135;-87
2023/07/01 10:28:09;;;;;;;0.45;0.40;;;17.50;99.90;;;;;;4899899;29;20099;-87
2023/07/01 10:30:41;;;;;;;0.65;0.30;;;17.50;99.90;;;;;;4883342;29;20056;-87
2023/07/01 10:33:39;;;;;;;0.20;0.20;;;17.50;99.90;;;;;;4883984;29;20058;-84
2023/07/01 10:36:05;;;;;;;0.55;0.30;;;17.60;99.90;;;;;;4890856;29;20105;-87
2023/07/01 10:38:32;;;;;;;0.40;0.40;;;17.60;99.90;;;;;;4900195;29;20063;-87
2023/07/01 10:40:58;;;;;;;1.27;0.68;;;17.70;99.90;;;;;;4884341;29;20056;-85
2023/07/01 10:43:36;;;;;;;0.45;0.45;;;17.70;99.90;;;;;;4899446;29;20059;-86
2023/07/01 10:46:23;;;;;;;0.10;0.10;;;17.70;99.90;;;;;;4899901;29;20497;-86
2023/07/01 10:49:04;;;;;;;1.08;0.65;;;17.70;99.90;;;;;;4899395;29;20053;-86
2023/07/01 10:51:49;;;;;;;0.40;0.40;;;17.80;99.90;;;;;;4899701;29;20067;-86
2023/07/01 10:54:29;;;;;;;0.30;0.30;;;17.90;99.90;;;;;;4899490;29;20067;-86
2023/07/01 10:57:18;;;;;;;0.22;0.22;;;17.90;99.90;;;;;;4898527;29;20044;-84
2023/07/01 10:59:44;;;;;;;0.17;0.15;;;18.00;99.90;;;;;;4898650;29;20059;-86
2023/07/01 11:02:11;;;;;;;0.57;0.40;;;18.10;99.90;;;;;;4914882;29;20052;-85
2023/07/01 11:04:52;;;;;;;0.75;0.52;;;18.10;99.90;;;;;;4899094;29;20138;-86
2023/07/01 11:07:25;;;;;;;0.65;0.40;;;18.10;99.90;;;;;;4899533;29;20060;-86
2023/07/01 11:09:52;;;;;;;0.30;0.30;;;18.10;99.90;;;;;;4916509;29;20056;-86
2023/07/01 11:12:18;;;;;;;0.52;0.52;;;18.10;99.90;;;;;;4918989;29;20056;-87
2023/07/01 11:14:44;;;;;;;0.20;0.10;;;18.10;99.90;;;;;;4887478;29;20048;-85
2023/07/01 11:17:15;;;;;;;0.17;0.17;;;18.00;99.90;;;;;;4903309;29;20125;-85
2023/07/01 11:19:41;;;;;;;0.55;0.55;;;18.00;99.90;;;;;;4919963;29;20389;-84
2023/07/01 11:22:11;;;;;;;0.20;0.17;;;17.90;99.90;;;;;;4903350;29;20151;-85
2023/07/01 11:24:37;;;;;;;0.82;0.63;;;17.90;99.90;;;;;;4903193;29;20056;-86
2023/07/01 11:27:06;;;;;;;0.32;0.32;;;17.80;99.90;;;;;;4903335;29;20040;-86
2023/07/01 11:29:31;;;;;;;0.35;0.32;;;17.80;99.90;;;;;;4887665;29;20489;-85
2023/07/01 11:32:04;;;;;;;0.52;0.30;;;17.80;99.90;;;;;;4887573;29;20060;-84
2023/07/01 11:34:30;;;;;;;0.10;0.10;;;17.80;99.90;;;;;;4902948;29;20066;-84
2023/07/01 11:36:57;;;;;;;0.55;0.20;;;17.80;99.90;;;;;;4902178;29;20461;-82
2023/07/01 11:39:24;;;;;;;0.30;0.20;;;17.80;99.90;;;;;;4919628;29;20111;-82
2023/07/01 11:41:53;;;;;;;0.10;0.10;;;17.80;99.90;;;;;;4902548;29;20048;-81
2023/07/01 11:44:24;;;;;;;0.15;0.15;;;17.90;99.90;;;;;;4919590;29;20127;-82
2023/07/01 11:46:50;;;;;;;0.10;0.10;;;17.90;99.90;;;;;;4886847;29;20055;-81
2023/07/01 11:49:26;;;;;;;;;;;17.90;99.90;;;;;;4919692;29;20048;-81
2023/07/01 11:52:02;;;;;;;0.10;0.10;;;17.90;99.90;;;;;;4901978;29;19923;-82
2023/07/01 11:54:48;;;;;;;0.32;0.20;;;18.00;99.90;;;;;;4902401;29;20071;-82
2023/07/01 11:57:18;;;;;;;0.30;0.30;;;17.90;99.90;;;;;;4919339;29;20044;-81
2023/07/01 11:59:54;;;;;;;0.10;0.08;;;18.00;99.90;;;;;;4886569;29;20092;-82
2023/07/01 12:02:30;;;;;;;0.10;0.10;;;17.90;99.90;;;;;;4902222;29;20056;-82
2023/07/01 12:04:56;;;;;;;0.10;0.10;;;18.00;99.90;;;;;;4902084;29;20048;-84
2023/07/01 12:07:22;;;;;;;0.00;0.00;;;18.10;99.90;;;;;;4886313;29;20048;-82
2023/07/01 12:09:48;;;;;;;0.13;0.08;;;18.30;99.90;;;;;;4886415;29;20134;-83
2023/07/01 12:12:18;;;;;;;0.10;0.10;;;18.50;99.90;;;;;;4886960;29;20497;-82
2023/07/01 12:14:45;;;;;;;0.00;0.00;;;18.70;99.90;;;;;;4901925;29;20115;-83
2023/07/01 12:17:30;;;;;;;0.20;0.20;;;18.80;99.90;;;;;;4886039;29;20040;-84
2023/07/01 12:19:58;;;;;;;0.20;0.20;;;18.80;99.90;;;;;;4901881;29;20276;-83
2023/07/01 12:22:25;;;;;;;0.00;0.00;;;18.90;99.90;;;;;;4885605;29;20054;-83
2023/07/01 12:24:58;;;;;;;0.10;0.10;;;18.90;99.90;;;;;;4901693;29;20111;-83
2023/07/01 12:27:24;;;;;;;0.32;0.10;;;19.00;99.90;;;;;;4886113;29;20080;-83
2023/07/01 12:29:50;;;;;;;0.15;0.15;;;19.00;99.90;;;;;;4918277;29;20060;-83
2023/07/01 12:32:17;;;;;;;0.32;0.32;;;19.00;99.90;;;;;;4918740;29;20099;-83
2023/07/01 12:34:43;;;;;;;0.30;0.30;;;19.00;99.90;;;;;;4918646;29;20119;-85
2023/07/01 12:37:08;;;;;;;0.20;0.20;;;18.90;99.90;;;;;;4886225;29;20126;-84
2023/07/01 12:39:36;;;;;;;0.08;0.08;;;18.90;99.90;;;;;;4886841;29;20183;-80
2023/07/01 12:42:02;;;;;;;1.20;0.75;;;18.80;99.90;;;;;;4918728;29;20471;-81
2023/07/01 12:44:28;;;;;;;0.52;0.22;;;18.70;99.90;;;;;;4901601;29;20080;-83
2023/07/01 12:46:54;;;;;;;0.47;0.40;;;18.70;99.90;;;;;;4901146;29;20492;-82
2023/07/01 12:49:21;;;;;;;0.43;0.30;;;18.70;99.90;;;;;;4901596;29;20048;-82
2023/07/01 12:51:47;;;;;;;0.43;0.20;;;18.80;99.90;;;;;;4917415;29;20059;-84
2023/07/01 12:54:12;;;;;;;0.25;0.25;;;18.90;99.90;;;;;;4886087;29;20043;-80
2023/07/01 12:56:39;;;;;;;0.10;0.10;;;19.00;99.90;;;;;;4901597;29;20172;-81